createdAt,value
2023-01-23T00:02:07.278Z,92.95
2023-01-23T00:04:33.820Z,93.29
2023-01-23T00:07:00.363Z,94.43
2023-01-23T00:09:26.824Z,94.18
2023-01-23T00:11:53.257Z,94.22
2023-01-23T00:14:19.737Z,93.84
2023-01-23T00:16:46.256Z,93.52
2023-01-23T00:19:12.842Z,93.99
2023-01-23T00:21:39.563Z,93.96
2023-01-23T00:24:06.619Z,94.69
2023-01-23T00:26:33.306Z,94.36
2023-01-23T00:29:00.113Z,94.13
2023-01-23T00:31:29.383Z,94.49
2023-01-23T00:34:02.085Z,95.41
2023-01-23T00:36:31.625Z,94.10
2023-01-23T00:38:58.524Z,94.32
2023-01-23T00:41:25.977Z,94.63
2023-01-23T00:43:52.730Z,94.89
2023-01-23T00:46:20.953Z,94.91
2023-01-23T00:48:47.940Z,94.47
2023-01-23T00:51:14.533Z,94.63
2023-01-23T00:53:41.101Z,94.97
2023-01-23T00:56:08.319Z,94.45
2023-01-23T00:58:34.880Z,95.24
2023-01-23T01:01:01.360Z,95.58
2023-01-23T01:03:27.931Z,95.36
2023-01-23T01:05:54.432Z,95.49
2023-01-23T01:08:20.942Z,95.69
2023-01-23T01:10:47.513Z,95.82
2023-01-23T01:13:14.538Z,95.77
2023-01-23T01:15:41.249Z,95.57
2023-01-23T01:18:07.726Z,95.49
2023-01-23T01:20:34.325Z,95.22
2023-01-23T01:23:00.848Z,95.33
2023-01-23T01:25:27.803Z,96.18
2023-01-23T01:27:55.975Z,95.19
2023-01-23T01:30:23.034Z,95.17
2023-01-23T01:32:50.320Z,95.83
2023-01-23T01:35:16.955Z,95.36
2023-01-23T01:37:43.583Z,95.24
2023-01-23T01:40:15.394Z,95.53
2023-01-23T01:42:52.847Z,95.24
2023-01-23T01:45:56.736Z,94.93
2023-01-23T01:48:27.357Z,96.18
2023-01-23T01:50:54.479Z,95.26
2023-01-23T01:53:25.749Z,95.67
2023-01-23T01:55:53.328Z,95.16
2023-01-23T01:58:20.156Z,95.64
2023-01-23T02:00:46.734Z,95.74
2023-01-23T02:03:13.240Z,95.44
2023-01-23T02:05:45.273Z,94.48
2023-01-23T02:08:30.051Z,93.93
2023-01-23T02:10:56.776Z,93.07
2023-01-23T02:13:35.982Z,93.74
2023-01-23T02:16:14.516Z,93.92
2023-01-23T02:18:47.273Z,95.06
2023-01-23T02:21:16.924Z,93.51
2023-01-23T02:23:56.300Z,94.23
2023-01-23T02:26:32.728Z,94.65
2023-01-23T02:29:00.058Z,94.61
2023-01-23T02:31:27.136Z,94.34
2023-01-23T02:33:56.576Z,94.21
2023-01-23T02:36:29.022Z,94.32
2023-01-23T02:39:08.596Z,93.67
2023-01-23T02:41:41.808Z,94.99
2023-01-23T02:44:19.795Z,94.59
2023-01-23T02:46:46.346Z,96.12
2023-01-23T02:49:13.063Z,94.97
2023-01-23T02:51:39.568Z,93.53
2023-01-23T02:54:06.323Z,93.58
2023-01-23T02:56:33.997Z,92.57
2023-01-23T02:59:20.992Z,93.63
2023-01-23T03:01:47.720Z,92.49
2023-01-23T03:04:14.240Z,92.86
2023-01-23T03:06:40.757Z,92.33
2023-01-23T03:09:10.851Z,92.56
2023-01-23T03:11:39.309Z,93.11
2023-01-23T03:14:09.087Z,93.59
2023-01-23T03:16:38.323Z,92.84
2023-01-23T03:19:08.259Z,93.64
2023-01-23T03:21:40.589Z,94.02
2023-01-23T03:24:09.607Z,93.65
2023-01-23T03:26:39.981Z,94.42
2023-01-23T03:29:25.028Z,93.46
2023-01-23T03:31:51.822Z,94.27
2023-01-23T03:34:19.119Z,94.21
2023-01-23T03:36:45.729Z,93.30
2023-01-23T03:39:31.047Z,93.47
2023-01-23T03:41:57.576Z,93.97
2023-01-23T03:44:24.150Z,93.67
2023-01-23T03:46:51.886Z,94.51
2023-01-23T03:49:19.391Z,93.71
2023-01-23T03:51:45.977Z,93.87
2023-01-23T03:54:14.634Z,93.03
2023-01-23T03:56:42.389Z,94.64
2023-01-23T03:59:09.322Z,94.19
2023-01-23T04:01:36.896Z,95.10
2023-01-23T04:04:04.253Z,94.34
2023-01-23T04:06:30.944Z,94.18
2023-01-23T04:08:58.275Z,93.38
2023-01-23T04:11:26.462Z,94.13
2023-01-23T04:13:54.162Z,93.53
2023-01-23T04:16:22.825Z,93.18
2023-01-23T04:18:52.596Z,93.63
2023-01-23T04:21:19.144Z,92.80
2023-01-23T04:23:45.972Z,93.98
2023-01-23T04:26:13.275Z,94.56
2023-01-23T04:28:39.785Z,94.14
2023-01-23T04:31:06.820Z,94.24
2023-01-23T04:33:33.461Z,94.68
2023-01-23T04:36:01.723Z,94.14
2023-01-23T04:38:29.537Z,95.13
2023-01-23T04:40:56.494Z,94.23
2023-01-23T04:43:23.043Z,94.17
2023-01-23T04:45:53.887Z,93.82
2023-01-23T04:48:20.630Z,96.11
2023-01-23T04:50:47.586Z,95.78
2023-01-23T04:53:14.576Z,95.41
2023-01-23T04:55:41.346Z,95.64
2023-01-23T04:58:08.213Z,95.37
2023-01-23T05:00:34.723Z,95.40
2023-01-23T05:03:02.660Z,95.50
2023-01-23T05:05:29.406Z,95.63
2023-01-23T05:07:55.852Z,94.28
2023-01-23T05:10:22.876Z,94.25
2023-01-23T05:12:49.569Z,94.20
2023-01-23T05:15:17.285Z,94.18
2023-01-23T05:17:44.002Z,93.98
2023-01-23T05:20:11.293Z,94.71
2023-01-23T05:22:38.066Z,94.56
2023-01-23T05:25:05.085Z,94.34
2023-01-23T05:27:31.668Z,91.31
2023-01-23T05:29:58.192Z,89.60
2023-01-23T05:32:24.740Z,89.36
2023-01-23T05:34:51.275Z,87.19
2023-01-23T05:37:17.899Z,86.36
2023-01-23T05:39:44.380Z,84.16
2023-01-23T05:42:10.875Z,85.47
2023-01-23T05:44:37.379Z,82.86
2023-01-23T05:47:03.927Z,82.50
2023-01-23T05:49:30.430Z,82.41
2023-01-23T05:51:56.872Z,81.54
2023-01-23T05:54:23.316Z,83.39
2023-01-23T05:56:49.880Z,84.15
2023-01-23T05:59:16.379Z,82.93
2023-01-23T06:01:42.844Z,82.63
2023-01-23T06:04:09.449Z,83.98
2023-01-23T06:06:36.031Z,82.82
2023-01-23T06:09:02.535Z,81.14
2023-01-23T06:11:28.982Z,78.66
2023-01-23T06:13:55.529Z,80.55
2023-01-23T06:16:22.069Z,79.59
2023-01-23T06:18:48.595Z,78.75
2023-01-23T06:21:17.812Z,78.06
2023-01-23T06:23:47.067Z,75.89
2023-01-23T06:26:13.993Z,74.78
2023-01-23T06:28:40.751Z,74.96
2023-01-23T06:31:09.393Z,74.91
2023-01-23T06:33:38.910Z,74.53
2023-01-23T06:36:07.177Z,72.06
2023-01-23T06:38:33.895Z,73.00
2023-01-23T06:41:01.085Z,78.43
2023-01-23T06:43:27.919Z,71.99
2023-01-23T06:45:54.425Z,71.80
2023-01-23T06:48:21.950Z,71.38
2023-01-23T06:50:48.889Z,70.50
2023-01-23T06:53:16.741Z,66.81
2023-01-23T06:55:43.354Z,65.83
2023-01-23T06:58:10.018Z,65.93
2023-01-23T07:00:36.501Z,66.38
2023-01-23T07:03:03.736Z,65.45
2023-01-23T07:05:31.128Z,66.87
2023-01-23T07:07:57.659Z,67.01
2023-01-23T07:10:24.383Z,66.48
2023-01-23T07:12:50.880Z,66.23
2023-01-23T07:15:17.681Z,67.63
2023-01-23T07:17:44.651Z,67.25
2023-01-23T07:20:11.540Z,65.77
2023-01-23T07:22:38.034Z,66.59
2023-01-23T07:25:05.311Z,67.12
2023-01-23T07:27:33.087Z,66.90
2023-01-23T07:29:59.599Z,65.99
2023-01-23T07:32:26.180Z,65.34
2023-01-23T07:34:53.241Z,65.92
2023-01-23T07:37:20.645Z,66.77
2023-01-23T07:39:47.130Z,66.78
2023-01-23T07:42:13.589Z,68.57
2023-01-23T07:44:40.080Z,67.40
2023-01-23T07:47:06.579Z,68.54
2023-01-23T07:49:33.124Z,69.35
2023-01-23T07:51:59.640Z,68.33
2023-01-23T07:54:26.080Z,67.44
2023-01-23T07:56:52.612Z,66.79
2023-01-23T07:59:19.147Z,67.15
2023-01-23T08:01:45.695Z,69.01
2023-01-23T08:04:12.295Z,68.43
2023-01-23T08:06:38.943Z,68.04
2023-01-23T08:09:05.492Z,68.34
2023-01-23T08:11:34.293Z,68.65
2023-01-23T08:14:01.001Z,68.25
2023-01-23T08:16:28.284Z,68.13
2023-01-23T08:18:54.960Z,68.85
2023-01-23T08:21:22.034Z,69.47
2023-01-23T08:23:48.750Z,69.25
2023-01-23T08:26:17.339Z,70.39
2023-01-23T08:28:45.148Z,68.34
2023-01-23T08:31:13.220Z,68.29
2023-01-23T08:33:40.152Z,67.82
2023-01-23T08:36:09.518Z,69.02
2023-01-23T08:38:37.941Z,68.72
2023-01-23T08:41:05.109Z,70.08
2023-01-23T08:43:33.147Z,69.68
2023-01-23T08:46:00.059Z,69.81
2023-01-23T08:48:27.582Z,70.62
2023-01-23T08:51:01.650Z,69.52
2023-01-23T08:53:29.544Z,71.04
2023-01-23T08:56:05.066Z,70.88
2023-01-23T08:58:31.782Z,70.08
2023-01-23T09:00:58.679Z,70.47
2023-01-23T09:03:25.720Z,69.79
2023-01-23T09:05:52.239Z,70.12
2023-01-23T09:08:18.798Z,69.97
2023-01-23T09:10:45.291Z,71.23
2023-01-23T09:13:11.865Z,70.61
2023-01-23T09:15:39.501Z,70.51
2023-01-23T09:18:06.555Z,70.08
2023-01-23T09:20:33.348Z,70.01
2023-01-23T09:22:59.978Z,68.93
2023-01-23T09:25:26.494Z,71.03
2023-01-23T09:27:53.064Z,70.70
2023-01-23T09:30:19.898Z,70.28
2023-01-23T09:32:46.625Z,72.11
2023-01-23T09:35:13.096Z,71.00
2023-01-23T09:37:59.061Z,71.12
2023-01-23T09:40:27.735Z,68.50
2023-01-23T09:42:57.050Z,68.86
2023-01-23T09:45:27.604Z,68.41
2023-01-23T09:48:20.128Z,67.54
2023-01-23T09:50:56.453Z,69.13
2023-01-23T09:53:26.970Z,70.00
2023-01-23T09:56:07.093Z,70.06
2023-01-23T09:58:46.249Z,68.90
2023-01-23T10:01:13.814Z,69.80
2023-01-23T10:03:41.274Z,68.57
2023-01-23T10:06:24.412Z,69.60
2023-01-23T10:09:04.789Z,69.35
2023-01-23T10:11:42.752Z,69.86
2023-01-23T10:14:30.886Z,69.44
2023-01-23T10:17:08.469Z,68.99
2023-01-23T10:19:51.851Z,68.74
2023-01-23T10:22:49.044Z,68.40
2023-01-23T10:25:21.657Z,69.18
2023-01-23T10:27:50.809Z,69.39
2023-01-23T10:30:28.120Z,68.35
2023-01-23T10:33:09.918Z,67.73
2023-01-23T10:35:47.533Z,67.63
2023-01-23T10:38:27.744Z,68.47
2023-01-23T10:41:12.945Z,67.75
2023-01-23T10:43:40.739Z,67.43
2023-01-23T10:46:16.706Z,67.61
2023-01-23T10:48:49.921Z,67.40
2023-01-23T10:51:46.771Z,67.73
2023-01-23T10:54:30.636Z,68.40
2023-01-23T10:56:59.584Z,69.11
2023-01-23T10:59:28.946Z,69.47
2023-01-23T11:02:20.162Z,68.93
2023-01-23T11:04:49.320Z,68.94
2023-01-23T11:07:22.555Z,69.44
2023-01-23T11:09:50.805Z,69.53
2023-01-23T11:12:21.624Z,69.49
2023-01-23T11:14:48.939Z,69.48
2023-01-23T11:17:19.480Z,69.06
2023-01-23T11:19:48.567Z,69.16
2023-01-23T11:22:31.128Z,69.18
2023-01-23T11:24:58.558Z,68.90
2023-01-23T11:27:29.684Z,68.12
2023-01-23T11:30:31.508Z,69.42
2023-01-23T11:33:05.657Z,69.46
2023-01-23T11:35:57.449Z,68.58
2023-01-23T11:38:31.846Z,68.47
2023-01-23T11:40:59.137Z,68.79
2023-01-23T11:43:25.705Z,69.99
2023-01-23T11:46:15.419Z,70.04
2023-01-23T11:49:14.257Z,69.34
2023-01-23T11:51:56.019Z,70.06
2023-01-23T11:54:58.802Z,69.38
2023-01-23T11:57:34.202Z,69.66
2023-01-23T12:00:33.141Z,70.97
2023-01-23T12:03:18.184Z,69.82
2023-01-23T12:06:19.246Z,70.06
2023-01-23T12:08:56.679Z,70.68
2023-01-23T12:11:24.603Z,69.98
2023-01-23T12:14:21.189Z,73.57
2023-01-23T12:16:59.563Z,69.95
2023-01-23T12:19:37.876Z,69.23
2023-01-23T12:22:19.647Z,70.00
2023-01-23T12:25:13.836Z,71.09
2023-01-23T12:27:57.815Z,70.46
2023-01-23T12:30:38.993Z,70.67
2023-01-23T12:33:17.903Z,70.83
2023-01-23T12:35:47.582Z,70.20
2023-01-23T12:38:36.935Z,69.50
2023-01-23T12:41:20.787Z,69.30
2023-01-23T12:43:50.457Z,69.35
2023-01-23T12:46:26.881Z,69.13
2023-01-23T12:49:14.549Z,70.38
2023-01-23T12:51:45.919Z,69.54
2023-01-23T12:54:21.162Z,70.10
2023-01-23T12:59:24.992Z,69.92
2023-01-23T13:01:58.244Z,70.60
2023-01-23T13:04:39.897Z,70.77
2023-01-23T13:07:09.404Z,71.46
2023-01-23T13:10:03.660Z,70.69
2023-01-23T13:12:30.513Z,71.75
2023-01-23T13:15:38.728Z,71.17
2023-01-23T13:18:06.246Z,71.71
2023-01-23T13:20:57.981Z,72.05
2023-01-23T13:23:29.186Z,72.63
2023-01-23T13:26:12.582Z,73.45
2023-01-23T13:28:53.880Z,74.06
2023-01-23T13:32:15.642Z,75.16
2023-01-23T13:34:42.207Z,75.20
2023-01-23T13:37:50.977Z,74.29
2023-01-23T13:40:20.980Z,74.78
2023-01-23T13:42:47.603Z,73.60
2023-01-23T13:45:21.061Z,72.35
2023-01-23T14:22:46.732Z,71.05
2023-01-23T14:25:17.618Z,71.76
2023-01-23T14:27:53.304Z,70.61
2023-01-23T14:30:30.246Z,70.86
2023-01-23T14:32:56.854Z,70.68
2023-01-23T14:35:29.099Z,71.19
2023-01-23T14:38:02.403Z,71.40
2023-01-23T14:40:37.333Z,71.97
2023-01-23T14:43:09.125Z,72.07
2023-01-23T14:45:37.347Z,72.74
2023-01-23T14:48:07.559Z,72.49
2023-01-23T14:50:34.551Z,72.72
2023-01-23T14:53:06.454Z,72.76
2023-01-23T14:55:37.415Z,72.68
2023-01-23T14:58:04.888Z,72.29
2023-01-23T15:00:32.021Z,72.76
2023-01-23T15:02:58.680Z,73.80
2023-01-23T15:05:27.907Z,73.08
2023-01-23T15:08:07.409Z,72.63
2023-01-23T15:10:42.753Z,72.52
2023-01-23T15:13:21.437Z,72.90
2023-01-23T15:15:55.619Z,72.79
2023-01-23T15:18:27.971Z,73.53
2023-01-23T15:20:57.127Z,72.71
2023-01-23T15:23:37.913Z,73.63
2023-01-23T15:26:19.649Z,72.96
2023-01-23T15:28:51.718Z,74.48
2023-01-23T15:31:27.372Z,73.35
2023-01-23T15:33:54.959Z,74.15
2023-01-23T15:36:27.755Z,74.00
2023-01-23T15:38:56.544Z,74.00
2023-01-23T15:41:39.440Z,74.33
2023-01-23T15:44:13.729Z,73.97
2023-01-23T15:46:40.345Z,74.80
2023-01-23T15:49:10.775Z,74.34
2023-01-23T15:51:43.038Z,74.72
2023-01-23T15:54:19.933Z,74.65
2023-01-23T15:56:48.830Z,74.67
2023-01-23T15:59:20.705Z,75.82
2023-01-23T16:01:47.364Z,75.61
2023-01-23T16:04:14.019Z,75.59
2023-01-23T16:06:40.951Z,75.34
2023-01-23T16:09:09.929Z,75.52
2023-01-23T16:11:38.572Z,75.71
2023-01-23T16:14:05.094Z,75.76
2023-01-23T16:16:31.701Z,76.15
2023-01-23T16:18:58.234Z,76.62
2023-01-23T16:21:29.796Z,76.63
2023-01-23T16:23:57.208Z,75.53
2023-01-23T16:26:26.384Z,76.81
2023-01-23T16:28:57.163Z,75.99
2023-01-23T16:31:31.737Z,75.56
2023-01-23T16:33:58.387Z,76.72
2023-01-23T16:36:24.892Z,75.95
2023-01-23T16:38:56.382Z,76.14
2023-01-23T16:41:22.943Z,81.68
2023-01-23T16:43:49.551Z,76.48
2023-01-23T16:46:16.085Z,75.23
2023-01-23T16:48:42.574Z,77.59
2023-01-23T16:51:21.870Z,75.40
2023-01-23T16:53:58.650Z,76.04
2023-01-23T16:56:50.964Z,76.01
2023-01-23T16:59:21.672Z,76.29
2023-01-23T17:01:50.993Z,75.55
2023-01-23T17:04:20.676Z,75.96
2023-01-23T17:06:48.003Z,76.20
2023-01-23T17:09:15.344Z,77.08
2023-01-23T17:11:52.731Z,77.27
2023-01-23T17:14:27.759Z,77.34
2023-01-23T17:17:09.890Z,77.05
2023-01-23T17:19:41.374Z,77.89
2023-01-23T17:22:18.972Z,76.96
2023-01-23T17:24:45.534Z,76.31
2023-01-23T17:27:12.028Z,76.64
2023-01-23T17:29:38.504Z,76.00
2023-01-23T17:32:05.432Z,75.82
2023-01-23T17:34:45.187Z,76.07
2023-01-23T17:37:21.080Z,75.62
2023-01-23T17:39:47.705Z,75.76
2023-01-23T17:42:14.616Z,76.02
2023-01-23T17:44:41.387Z,77.66
2023-01-23T17:47:13.914Z,78.15
2023-01-23T17:49:43.856Z,79.03
2023-01-23T17:52:11.504Z,79.34
2023-01-23T17:54:38.203Z,79.53
2023-01-23T17:57:04.873Z,79.95
2023-01-23T17:59:31.932Z,79.54
2023-01-23T18:01:58.620Z,80.73
2023-01-23T18:04:25.116Z,81.10
2023-01-23T18:06:51.723Z,81.04
2023-01-23T18:09:21.360Z,81.75
2023-01-23T18:11:52.380Z,81.63
2023-01-23T18:14:24.790Z,82.28
2023-01-23T18:16:51.634Z,82.52
2023-01-23T18:19:23.560Z,81.41
2023-01-23T18:21:52.997Z,81.19
2023-01-23T18:24:31.461Z,82.31
2023-01-23T18:27:24.627Z,82.62
2023-01-23T18:30:27.484Z,82.69
2023-01-23T18:33:13.082Z,82.44
2023-01-23T18:35:42.563Z,83.31
2023-01-23T18:38:36.015Z,85.52
2023-01-23T18:41:25.117Z,83.37
2023-01-23T18:44:02.686Z,83.93
2023-01-23T18:46:29.483Z,82.88
2023-01-23T18:48:56.351Z,83.18
2023-01-23T18:51:32.584Z,82.50
2023-01-23T18:54:08.321Z,82.62
2023-01-23T18:56:50.944Z,82.63
2023-01-23T18:59:26.601Z,83.27
2023-01-23T19:02:47.360Z,84.14
2023-01-23T19:05:21.185Z,83.51
2023-01-23T19:07:49.554Z,83.82
2023-01-23T19:10:19.272Z,83.50
2023-01-23T19:12:48.481Z,83.55
2023-01-23T19:16:05.816Z,83.39
2023-01-23T19:19:17.319Z,83.40
2023-01-23T19:21:46.625Z,83.84
2023-01-23T19:24:18.196Z,83.81
2023-01-23T19:26:45.052Z,84.24
2023-01-23T19:29:21.464Z,83.80
2023-01-23T19:32:04.155Z,84.41
2023-01-23T19:34:31.752Z,84.98
2023-01-23T19:36:58.245Z,85.40
2023-01-23T19:39:24.693Z,85.60
2023-01-23T19:41:51.908Z,85.58
2023-01-23T19:44:20.258Z,86.39
2023-01-23T19:46:47.541Z,86.88
2023-01-23T19:49:14.069Z,87.66
2023-01-23T19:51:41.369Z,87.37
2023-01-23T19:54:09.479Z,87.96
2023-01-23T19:56:37.187Z,88.35
2023-01-23T19:59:03.637Z,88.45
2023-01-23T20:01:46.712Z,88.63
2023-01-23T20:04:16.097Z,89.41
2023-01-23T20:06:45.302Z,89.80
2023-01-23T20:09:14.612Z,90.40
2023-01-23T20:11:42.873Z,90.61
2023-01-23T20:14:09.671Z,91.03
2023-01-23T20:16:40.234Z,92.57
2023-01-23T20:19:07.537Z,92.97
2023-01-23T20:21:34.436Z,93.43
2023-01-23T20:24:00.957Z,93.21
2023-01-23T20:26:27.601Z,92.54
2023-01-23T20:28:54.128Z,92.77
2023-01-23T20:31:21.594Z,93.62
2023-01-23T20:33:48.376Z,93.60
2023-01-23T20:36:15.985Z,94.32
2023-01-23T20:38:43.428Z,94.38
2023-01-23T20:41:15.664Z,94.98
2023-01-23T20:43:45.640Z,95.23
2023-01-23T20:46:13.875Z,95.64
2023-01-23T20:48:43.961Z,95.30
2023-01-23T20:51:11.039Z,95.64
2023-01-23T20:53:39.965Z,96.12
2023-01-23T20:56:12.168Z,95.52
2023-01-23T20:59:00.065Z,96.34
2023-01-23T21:01:29.678Z,96.17
2023-01-23T21:03:56.713Z,96.48
2023-01-23T21:06:23.259Z,97.25
2023-01-23T21:08:49.775Z,96.73
2023-01-23T21:11:18.496Z,96.67
2023-01-23T21:13:50.733Z,96.24
2023-01-23T21:16:18.113Z,96.80
2023-01-23T21:18:46.898Z,96.77
2023-01-23T21:21:17.245Z,97.74
2023-01-23T21:23:46.606Z,97.45
2023-01-23T21:26:13.185Z,97.99
2023-01-23T21:28:39.760Z,98.50
2023-01-23T21:31:12.890Z,98.52
2023-01-23T21:33:40.736Z,98.30
2023-01-23T21:36:07.761Z,98.10
2023-01-23T21:38:34.230Z,98.18
2023-01-23T21:41:00.748Z,99.09
2023-01-23T21:43:27.296Z,98.77
2023-01-23T21:45:53.803Z,98.04
2023-01-23T21:48:20.342Z,97.80
2023-01-23T21:50:46.833Z,97.95
2023-01-23T21:53:13.316Z,98.36
2023-01-23T21:55:39.794Z,99.27
2023-01-23T21:58:06.393Z,99.15
2023-01-23T22:00:59.648Z,98.96
2023-01-23T22:03:26.107Z,100.00
2023-01-23T22:05:57.576Z,99.36
2023-01-23T22:08:24.074Z,99.34
2023-01-23T22:10:50.576Z,99.65
2023-01-23T22:13:17.028Z,99.28
2023-01-23T22:15:43.602Z,99.72
2023-01-23T22:18:10.110Z,99.14
2023-01-23T22:20:38.239Z,100.00
2023-01-23T22:23:04.797Z,100.00
2023-01-23T22:25:31.524Z,100.00
2023-01-23T22:27:57.978Z,100.00
2023-01-23T22:30:24.564Z,100.00
2023-01-23T22:32:51.172Z,100.00
2023-01-23T22:35:17.746Z,100.00
2023-01-23T22:37:44.273Z,100.00
2023-01-23T22:40:11.242Z,100.00
2023-01-23T22:42:37.918Z,100.00
2023-01-23T22:45:05.394Z,100.00
2023-01-23T22:47:31.945Z,100.00
2023-01-23T22:49:58.485Z,100.00
2023-01-23T22:52:24.988Z,100.00
2023-01-23T22:54:51.547Z,100.00
2023-01-23T22:57:18.002Z,100.00
2023-01-23T22:59:44.476Z,100.00
2023-01-23T23:02:10.916Z,100.00
2023-01-23T23:04:37.480Z,100.00
2023-01-23T23:07:03.967Z,100.00
2023-01-23T23:09:30.453Z,100.00
2023-01-23T23:11:57.324Z,100.00
2023-01-23T23:14:23.907Z,100.00
2023-01-23T23:16:50.424Z,100.00
2023-01-23T23:19:16.865Z,100.00
2023-01-23T23:21:43.407Z,100.00
2023-01-23T23:24:12.750Z,100.00
2023-01-23T23:26:39.271Z,100.00
2023-01-23T23:29:06.084Z,100.00
2023-01-23T23:31:32.757Z,100.00
2023-01-23T23:33:59.648Z,100.00
2023-01-23T23:36:26.197Z,100.00
2023-01-23T23:38:52.780Z,100.00
2023-01-23T23:41:19.458Z,100.00
2023-01-23T23:43:46.077Z,100.00
2023-01-23T23:46:13.780Z,100.00
2023-01-23T23:48:40.485Z,100.00
2023-01-23T23:51:09.516Z,100.00
2023-01-23T23:53:36.758Z,100.00
2023-01-23T23:56:04.607Z,100.00
2023-01-23T23:58:31.627Z,100.00
